메인 페이지
METAR-TAF:

METAR-TAF

공항 :

웰링턴, 뉴질랜드

웰링턴 국제공항

위도: 41-20S, 경도: 174-48E, 고도: 12m

현재 날씨관측

예보는 28분 전, 07:00시(UTC)에 발표되었습니다.
24kt, 순간 최대 풍속 43kt북서풍과 북북동풍을 오가는
온도 19°C
습도 68%
기압 1006 hPa
시정 10km 이상

METAR: NZWN 250700Z AUTO 35024G43KT 310V020 9999 SCT029/// 19/13 Q1006 NOSIG

시각: 20:28 (07:28 UTC)

예보

예보는 2 시간 31분 전, 04:57시(UTC)에 발표되었습니다.
예보 대상 시간: 25일 06시부터 26일 06시까지 (UTC)
25kt, 순간 최대 풍속 45kt
시정 10km 이상
고도 3000ft 상공 구름 보통
전환 중
25일 18시부터 25일 20시까지 (UTC)
12kt
25일 2000시부터 (UTC)
15kt, 순간 최대 풍속 25kt
시정 10km 이상
고도 800ft 상공 구름 조금
고도 2500ft 상공 구름 많음
약한비
일시적
25일 20시부터 26일 06시까지 (UTC)
시정: 4000m
고도 1200ft 상공 구름 많음
확률 40% :
일시적
25일 20시부터 26일 01시까지 (UTC)
시정: 2500m
고도 800ft 상공 구름 많음
강한비

TAF: NZWN 250457Z 2506/2606 35025G45KT 9999 SCT030 BECMG 2518/2520 19012KT FM252000 19015G25KT 9999 -RA FEW008 BKN025 TEMPO 2520/2606 4000 RA BKN012 PROB40 TEMPO 2520/2601 2500 +RA BKN008

4,000개 이상의 공항 관측 자료 및 예보 (METAR 및 TAF 보고).

지도상에서 검색 가능한 기상관측소가 노란 점과 빨간 점으로 표시되어 있습니다.

기상관측소 명을 보려면 표시 위로 마우스를 이동하세요.

날씨 관측과 예보를 보려면 클릭하세요.

지도 변경 : 확대하려면 엑스 표시가 있는 녹색 버튼, 축소하려면 빼기 표시가 있는 녹색 버튼, 다음 페이지의 지도를 보려면 녹색 화살표를 클릭하세요.


METAR-TAF: